sensor_id;sensor_type;location;lat;lon;timestamp;P1;durP1;ratioP1;P2;durP2;ratioP2
15234;SDS011;7720;51.926;4.488;2023-08-08T00:03:35;12.95;;;2.95;;
15234;SDS011;7720;51.926;4.488;2023-08-08T00:08:39;11.88;;;3.03;;
15234;SDS011;7720;51.926;4.488;2023-08-08T00:13:42;12.82;;;3.10;;
15234;SDS011;7720;51.926;4.488;2023-08-08T00:18:47;14.02;;;3.13;;
15234;SDS011;7720;51.926;4.488;2023-08-08T00:23:52;15.45;;;3.13;;
15234;SDS011;7720;51.926;4.488;2023-08-08T00:28:55;12.15;;;2.90;;
15234;SDS011;7720;51.926;4.488;2023-08-08T00:34:00;10.43;;;2.92;;
15234;SDS011;7720;51.926;4.488;2023-08-08T00:39:05;13.35;;;3.08;;
15234;SDS011;7720;51.926;4.488;2023-08-08T00:44:09;12.35;;;3.05;;
15234;SDS011;7720;51.926;4.488;2023-08-08T00:49:14;11.73;;;3.20;;
15234;SDS011;7720;51.926;4.488;2023-08-08T00:54:18;15.57;;;3.25;;
15234;SDS011;7720;51.926;4.488;2023-08-08T00:59:24;10.70;;;3.10;;
15234;SDS011;7720;51.926;4.488;2023-08-08T01:04:29;10.18;;;2.42;;
15234;SDS011;7720;51.926;4.488;2023-08-08T01:09:33;9.18;;;2.58;;
15234;SDS011;7720;51.926;4.488;2023-08-08T01:14:39;9.60;;;2.30;;
15234;SDS011;7720;51.926;4.488;2023-08-08T01:19:45;8.68;;;2.35;;
15234;SDS011;7720;51.926;4.488;2023-08-08T01:24:50;6.63;;;2.15;;
15234;SDS011;7720;51.926;4.488;2023-08-08T01:29:54;3.45;;;2.05;;
15234;SDS011;7720;51.926;4.488;2023-08-08T01:34:58;5.18;;;1.70;;
15234;SDS011;7720;51.926;4.488;2023-08-08T01:40:03;4.80;;;2.00;;
15234;SDS011;7720;51.926;4.488;2023-08-08T01:45:08;5.32;;;2.10;;
15234;SDS011;7720;51.926;4.488;2023-08-08T01:50:12;4.75;;;1.90;;
15234;SDS011;7720;51.926;4.488;2023-08-08T01:55:18;6.15;;;2.47;;
15234;SDS011;7720;51.926;4.488;2023-08-08T02:00:21;4.45;;;1.67;;
15234;SDS011;7720;51.926;4.488;2023-08-08T02:05:27;4.63;;;1.70;;
15234;SDS011;7720;51.926;4.488;2023-08-08T02:10:32;3.13;;;1.55;;
15234;SDS011;7720;51.926;4.488;2023-08-08T02:15:36;5.75;;;1.90;;
15234;SDS011;7720;51.926;4.488;2023-08-08T02:20:40;4.25;;;1.50;;
15234;SDS011;7720;51.926;4.488;2023-08-08T02:25:45;4.50;;;1.80;;
15234;SDS011;7720;51.926;4.488;2023-08-08T02:30:50;5.57;;;1.42;;
15234;SDS011;7720;51.926;4.488;2023-08-08T02:35:54;4.45;;;1.42;;
15234;SDS011;7720;51.926;4.488;2023-08-08T02:40:59;5.22;;;1.40;;
15234;SDS011;7720;51.926;4.488;2023-08-08T02:46:03;5.65;;;1.52;;
15234;SDS011;7720;51.926;4.488;2023-08-08T02:51:07;2.88;;;1.23;;
15234;SDS011;7720;51.926;4.488;2023-08-08T02:56:13;3.90;;;1.45;;
15234;SDS011;7720;51.926;4.488;2023-08-08T03:01:17;5.28;;;1.38;;
15234;SDS011;7720;51.926;4.488;2023-08-08T03:06:22;5.25;;;1.80;;
15234;SDS011;7720;51.926;4.488;2023-08-08T03:11:28;3.97;;;1.40;;
15234;SDS011;7720;51.926;4.488;2023-08-08T03:16:31;4.43;;;1.40;;
15234;SDS011;7720;51.926;4.488;2023-08-08T03:21:36;4.88;;;1.33;;
15234;SDS011;7720;51.926;4.488;2023-08-08T03:26:42;2.67;;;1.10;;
15234;SDS011;7720;51.926;4.488;2023-08-08T03:31:46;2.58;;;1.10;;
15234;SDS011;7720;51.926;4.488;2023-08-08T03:36:51;4.60;;;1.45;;
15234;SDS011;7720;51.926;4.488;2023-08-08T03:41:57;3.40;;;1.38;;
15234;SDS011;7720;51.926;4.488;2023-08-08T03:47:01;4.68;;;1.38;;
15234;SDS011;7720;51.926;4.488;2023-08-08T03:52:20;6.28;;;1.52;;
15234;SDS011;7720;51.926;4.488;2023-08-08T03:57:26;4.10;;;1.38;;
15234;SDS011;7720;51.926;4.488;2023-08-08T04:02:30;4.40;;;1.92;;
15234;SDS011;7720;51.926;4.488;2023-08-08T04:07:35;4.63;;;1.20;;
15234;SDS011;7720;51.926;4.488;2023-08-08T04:12:40;3.42;;;1.13;;
15234;SDS011;7720;51.926;4.488;2023-08-08T04:17:44;5.05;;;1.60;;
15234;SDS011;7720;51.926;4.488;2023-08-08T04:22:47;4.03;;;1.75;;
15234;SDS011;7720;51.926;4.488;2023-08-08T04:27:53;3.13;;;1.08;;
15234;SDS011;7720;51.926;4.488;2023-08-08T04:32:57;4.35;;;1.40;;
15234;SDS011;7720;51.926;4.488;2023-08-08T04:38:00;3.97;;;1.13;;
15234;SDS011;7720;51.926;4.488;2023-08-08T04:43:06;3.95;;;1.30;;
15234;SDS011;7720;51.926;4.488;2023-08-08T04:48:10;3.00;;;1.30;;
15234;SDS011;7720;51.926;4.488;2023-08-08T04:53:14;1.73;;;1.05;;
15234;SDS011;7720;51.926;4.488;2023-08-08T04:58:19;2.97;;;1.00;;
15234;SDS011;7720;51.926;4.488;2023-08-08T05:03:23;4.55;;;1.30;;
15234;SDS011;7720;51.926;4.488;2023-08-08T05:08:27;1.85;;;1.15;;
15234;SDS011;7720;51.926;4.488;2023-08-08T05:13:32;3.05;;;1.00;;
15234;SDS011;7720;51.926;4.488;2023-08-08T05:18:36;4.65;;;1.70;;
15234;SDS011;7720;51.926;4.488;2023-08-08T05:23:40;1.98;;;1.10;;
15234;SDS011;7720;51.926;4.488;2023-08-08T05:28:45;6.30;;;1.25;;
15234;SDS011;7720;51.926;4.488;2023-08-08T05:33:49;4.30;;;1.13;;
15234;SDS011;7720;51.926;4.488;2023-08-08T05:38:53;4.45;;;1.35;;
15234;SDS011;7720;51.926;4.488;2023-08-08T05:43:58;5.10;;;1.20;;
15234;SDS011;7720;51.926;4.488;2023-08-08T05:49:02;3.72;;;1.10;;
15234;SDS011;7720;51.926;4.488;2023-08-08T05:54:06;4.05;;;1.45;;
15234;SDS011;7720;51.926;4.488;2023-08-08T05:59:11;3.03;;;1.27;;
15234;SDS011;7720;51.926;4.488;2023-08-08T06:04:15;4.97;;;1.20;;
15234;SDS011;7720;51.926;4.488;2023-08-08T06:09:19;3.42;;;1.00;;
15234;SDS011;7720;51.926;4.488;2023-08-08T06:14:24;2.85;;;0.90;;
15234;SDS011;7720;51.926;4.488;2023-08-08T06:19:28;2.22;;;0.80;;
15234;SDS011;7720;51.926;4.488;2023-08-08T06:24:31;3.05;;;0.80;;
15234;SDS011;7720;51.926;4.488;2023-08-08T06:29:36;2.08;;;0.80;;
15234;SDS011;7720;51.926;4.488;2023-08-08T06:34:40;3.60;;;1.00;;
15234;SDS011;7720;51.926;4.488;2023-08-08T06:39:44;2.05;;;0.75;;
15234;SDS011;7720;51.926;4.488;2023-08-08T06:44:49;3.03;;;0.85;;
15234;SDS011;7720;51.926;4.488;2023-08-08T06:49:53;2.40;;;0.70;;
15234;SDS011;7720;51.926;4.488;2023-08-08T06:54:57;5.35;;;0.80;;
15234;SDS011;7720;51.926;4.488;2023-08-08T07:00:02;3.78;;;0.80;;
15234;SDS011;7720;51.926;4.488;2023-08-08T07:05:07;1.98;;;0.63;;
15234;SDS011;7720;51.926;4.488;2023-08-08T07:10:12;2.28;;;0.73;;
15234;SDS011;7720;51.926;4.488;2023-08-08T07:15:17;3.08;;;0.90;;
15234;SDS011;7720;51.926;4.488;2023-08-08T07:20:21;1.50;;;0.65;;
15234;SDS011;7720;51.926;4.488;2023-08-08T07:25:25;2.72;;;0.77;;
15234;SDS011;7720;51.926;4.488;2023-08-08T07:30:30;3.28;;;0.82;;
15234;SDS011;7720;51.926;4.488;2023-08-08T07:35:34;2.35;;;0.60;;
15234;SDS011;7720;51.926;4.488;2023-08-08T07:40:38;2.28;;;0.70;;
15234;SDS011;7720;51.926;4.488;2023-08-08T07:45:44;2.75;;;0.85;;
15234;SDS011;7720;51.926;4.488;2023-08-08T07:50:48;1.65;;;0.65;;
15234;SDS011;7720;51.926;4.488;2023-08-08T07:55:53;4.07;;;0.75;;
15234;SDS011;7720;51.926;4.488;2023-08-08T08:00:58;4.70;;;0.93;;
15234;SDS011;7720;51.926;4.488;2023-08-08T08:06:02;3.17;;;0.88;;
15234;SDS011;7720;51.926;4.488;2023-08-08T08:11:06;1.25;;;0.50;;
15234;SDS011;7720;51.926;4.488;2023-08-08T08:16:11;3.25;;;0.80;;
15234;SDS011;7720;51.926;4.488;2023-08-08T08:21:14;1.60;;;0.65;;
15234;SDS011;7720;51.926;4.488;2023-08-08T08:26:19;1.55;;;0.73;;
15234;SDS011;7720;51.926;4.488;2023-08-08T08:31:24;1.55;;;0.60;;
15234;SDS011;7720;51.926;4.488;2023-08-08T08:36:28;1.52;;;0.75;;
15234;SDS011;7720;51.926;4.488;2023-08-08T08:41:31;3.22;;;0.80;;
15234;SDS011;7720;51.926;4.488;2023-08-08T08:46:39;3.00;;;0.70;;
15234;SDS011;7720;51.926;4.488;2023-08-08T08:51:43;1.77;;;0.73;;
15234;SDS011;7720;51.926;4.488;2023-08-08T08:56:47;3.20;;;0.98;;
15234;SDS011;7720;51.926;4.488;2023-08-08T09:01:53;2.45;;;0.82;;
15234;SDS011;7720;51.926;4.488;2023-08-08T09:06:57;0.85;;;0.60;;
15234;SDS011;7720;51.926;4.488;2023-08-08T09:12:01;1.85;;;0.50;;
15234;SDS011;7720;51.926;4.488;2023-08-08T09:17:11;2.90;;;0.80;;
15234;SDS011;7720;51.926;4.488;2023-08-08T09:22:15;3.10;;;0.73;;
15234;SDS011;7720;51.926;4.488;2023-08-08T09:27:19;4.72;;;1.17;;
15234;SDS011;7720;51.926;4.488;2023-08-08T09:32:27;3.67;;;0.90;;
15234;SDS011;7720;51.926;4.488;2023-08-08T09:37:31;3.53;;;1.08;;
15234;SDS011;7720;51.926;4.488;2023-08-08T09:42:35;6.28;;;1.02;;
15234;SDS011;7720;51.926;4.488;2023-08-08T09:47:40;2.50;;;1.13;;
15234;SDS011;7720;51.926;4.488;2023-08-08T09:52:45;4.70;;;0.90;;
15234;SDS011;7720;51.926;4.488;2023-08-08T09:57:49;2.55;;;0.88;;
15234;SDS011;7720;51.926;4.488;2023-08-08T10:02:55;1.92;;;0.73;;
15234;SDS011;7720;51.926;4.488;2023-08-08T10:08:00;3.58;;;0.88;;
15234;SDS011;7720;51.926;4.488;2023-08-08T10:13:04;2.05;;;0.90;;
15234;SDS011;7720;51.926;4.488;2023-08-08T10:18:09;2.33;;;0.98;;
15234;SDS011;7720;51.926;4.488;2023-08-08T10:28:19;3.15;;;1.00;;
15234;SDS011;7720;51.926;4.488;2023-08-08T10:33:39;3.42;;;0.80;;
15234;SDS011;7720;51.926;4.488;2023-08-08T10:38:44;2.90;;;1.15;;
15234;SDS011;7720;51.926;4.488;2023-08-08T10:43:51;6.85;;;0.90;;
15234;SDS011;7720;51.926;4.488;2023-08-08T10:48:57;3.42;;;1.17;;
15234;SDS011;7720;51.926;4.488;2023-08-08T10:54:03;2.67;;;1.10;;
15234;SDS011;7720;51.926;4.488;2023-08-08T10:59:13;3.17;;;1.08;;
15234;SDS011;7720;51.926;4.488;2023-08-08T11:04:19;2.75;;;1.08;;
15234;SDS011;7720;51.926;4.488;2023-08-08T11:09:25;2.05;;;0.90;;
15234;SDS011;7720;51.926;4.488;2023-08-08T11:14:28;3.90;;;1.02;;
15234;SDS011;7720;51.926;4.488;2023-08-08T11:19:39;1.85;;;0.90;;
15234;SDS011;7720;51.926;4.488;2023-08-08T11:24:43;2.85;;;1.10;;
15234;SDS011;7720;51.926;4.488;2023-08-08T11:29:48;1.38;;;0.90;;
15234;SDS011;7720;51.926;4.488;2023-08-08T11:34:54;2.00;;;0.80;;
15234;SDS011;7720;51.926;4.488;2023-08-08T11:39:58;9.63;;;6.05;;
15234;SDS011;7720;51.926;4.488;2023-08-08T11:45:02;15.43;;;7.32;;
15234;SDS011;7720;51.926;4.488;2023-08-08T11:50:09;4.63;;;1.92;;
15234;SDS011;7720;51.926;4.488;2023-08-08T11:55:13;6.75;;;3.33;;
15234;SDS011;7720;51.926;4.488;2023-08-08T12:00:17;4.28;;;2.15;;
15234;SDS011;7720;51.926;4.488;2023-08-08T12:05:22;4.60;;;1.75;;
15234;SDS011;7720;51.926;4.488;2023-08-08T12:10:26;5.43;;;1.50;;
15234;SDS011;7720;51.926;4.488;2023-08-08T12:15:30;3.28;;;1.70;;
15234;SDS011;7720;51.926;4.488;2023-08-08T12:20:36;4.03;;;1.45;;
15234;SDS011;7720;51.926;4.488;2023-08-08T12:25:42;3.22;;;1.05;;
15234;SDS011;7720;51.926;4.488;2023-08-08T12:30:46;1.90;;;1.02;;
15234;SDS011;7720;51.926;4.488;2023-08-08T12:35:51;4.57;;;1.10;;
15234;SDS011;7720;51.926;4.488;2023-08-08T12:40:55;4.82;;;1.10;;
15234;SDS011;7720;51.926;4.488;2023-08-08T12:45:59;3.53;;;1.40;;
15234;SDS011;7720;51.926;4.488;2023-08-08T12:51:04;2.55;;;1.10;;
15234;SDS011;7720;51.926;4.488;2023-08-08T12:56:09;3.38;;;1.27;;
15234;SDS011;7720;51.926;4.488;2023-08-08T13:01:12;3.97;;;1.15;;
15234;SDS011;7720;51.926;4.488;2023-08-08T13:06:17;2.15;;;0.82;;
15234;SDS011;7720;51.926;4.488;2023-08-08T13:11:21;3.50;;;1.15;;
15234;SDS011;7720;51.926;4.488;2023-08-08T13:16:25;2.00;;;0.70;;
15234;SDS011;7720;51.926;4.488;2023-08-08T13:21:30;1.25;;;1.00;;
15234;SDS011;7720;51.926;4.488;2023-08-08T13:26:33;5.00;;;1.10;;
15234;SDS011;7720;51.926;4.488;2023-08-08T13:31:37;3.67;;;1.08;;
15234;SDS011;7720;51.926;4.488;2023-08-08T13:36:42;4.07;;;1.20;;
15234;SDS011;7720;51.926;4.488;2023-08-08T13:41:46;2.30;;;0.98;;
15234;SDS011;7720;51.926;4.488;2023-08-08T13:46:49;3.13;;;1.20;;
15234;SDS011;7720;51.926;4.488;2023-08-08T13:51:55;2.47;;;1.30;;
15234;SDS011;7720;51.926;4.488;2023-08-08T13:57:00;3.35;;;1.05;;
15234;SDS011;7720;51.926;4.488;2023-08-08T14:02:04;3.90;;;1.20;;
15234;SDS011;7720;51.926;4.488;2023-08-08T14:07:10;3.42;;;1.35;;
15234;SDS011;7720;51.926;4.488;2023-08-08T14:12:14;5.55;;;1.25;;
15234;SDS011;7720;51.926;4.488;2023-08-08T14:17:18;3.05;;;1.20;;
15234;SDS011;7720;51.926;4.488;2023-08-08T14:22:23;3.78;;;1.30;;
15234;SDS011;7720;51.926;4.488;2023-08-08T14:27:27;2.67;;;1.20;;
15234;SDS011;7720;51.926;4.488;2023-08-08T14:32:31;1.88;;;1.00;;
15234;SDS011;7720;51.926;4.488;2023-08-08T14:37:36;3.70;;;1.30;;
15234;SDS011;7720;51.926;4.488;2023-08-08T14:42:40;2.63;;;1.13;;
15234;SDS011;7720;51.926;4.488;2023-08-08T14:47:43;2.30;;;1.20;;
15234;SDS011;7720;51.926;4.488;2023-08-08T14:52:48;4.18;;;1.15;;
15234;SDS011;7720;51.926;4.488;2023-08-08T14:57:52;4.13;;;1.40;;
15234;SDS011;7720;51.926;4.488;2023-08-08T15:02:56;9.25;;;1.75;;
15234;SDS011;7720;51.926;4.488;2023-08-08T15:08:01;4.00;;;1.40;;
15234;SDS011;7720;51.926;4.488;2023-08-08T15:13:04;3.08;;;1.30;;
15234;SDS011;7720;51.926;4.488;2023-08-08T15:18:08;5.50;;;1.30;;
15234;SDS011;7720;51.926;4.488;2023-08-08T15:23:13;3.35;;;1.70;;
15234;SDS011;7720;51.926;4.488;2023-08-08T15:28:17;4.15;;;1.35;;
15234;SDS011;7720;51.926;4.488;2023-08-08T15:33:20;4.15;;;1.40;;
15234;SDS011;7720;51.926;4.488;2023-08-08T15:38:26;5.35;;;1.40;;
15234;SDS011;7720;51.926;4.488;2023-08-08T15:43:29;3.63;;;2.00;;
15234;SDS011;7720;51.926;4.488;2023-08-08T15:48:33;5.80;;;1.85;;
15234;SDS011;7720;51.926;4.488;2023-08-08T15:53:38;3.78;;;1.90;;
15234;SDS011;7720;51.926;4.488;2023-08-08T15:58:44;4.75;;;2.00;;
15234;SDS011;7720;51.926;4.488;2023-08-08T16:03:48;7.13;;;2.28;;
15234;SDS011;7720;51.926;4.488;2023-08-08T16:08:53;8.18;;;2.20;;
15234;SDS011;7720;51.926;4.488;2023-08-08T16:13:56;4.47;;;2.13;;
15234;SDS011;7720;51.926;4.488;2023-08-08T16:19:00;4.63;;;2.17;;
15234;SDS011;7720;51.926;4.488;2023-08-08T16:24:06;5.93;;;2.10;;
15234;SDS011;7720;51.926;4.488;2023-08-08T16:29:10;6.25;;;2.10;;
15234;SDS011;7720;51.926;4.488;2023-08-08T16:34:13;4.93;;;2.47;;
15234;SDS011;7720;51.926;4.488;2023-08-08T16:39:19;5.18;;;2.08;;
15234;SDS011;7720;51.926;4.488;2023-08-08T16:44:24;2.70;;;1.70;;
15234;SDS011;7720;51.926;4.488;2023-08-08T16:49:28;4.22;;;1.90;;
15234;SDS011;7720;51.926;4.488;2023-08-08T16:54:34;4.68;;;2.45;;
15234;SDS011;7720;51.926;4.488;2023-08-08T16:59:37;4.30;;;1.88;;
15234;SDS011;7720;51.926;4.488;2023-08-08T17:04:41;3.95;;;1.70;;
15234;SDS011;7720;51.926;4.488;2023-08-08T17:09:46;3.60;;;1.90;;
15234;SDS011;7720;51.926;4.488;2023-08-08T17:14:54;4.25;;;1.80;;
15234;SDS011;7720;51.926;4.488;2023-08-08T17:19:58;4.45;;;1.67;;
15234;SDS011;7720;51.926;4.488;2023-08-08T17:25:03;2.65;;;1.35;;
15234;SDS011;7720;51.926;4.488;2023-08-08T17:30:07;3.90;;;1.63;;
15234;SDS011;7720;51.926;4.488;2023-08-08T17:35:11;2.92;;;1.45;;
15234;SDS011;7720;51.926;4.488;2023-08-08T17:40:17;3.15;;;1.83;;
15234;SDS011;7720;51.926;4.488;2023-08-08T17:45:20;5.53;;;1.60;;
15234;SDS011;7720;51.926;4.488;2023-08-08T17:50:24;4.95;;;1.80;;
15234;SDS011;7720;51.926;4.488;2023-08-08T17:55:29;3.58;;;1.52;;
15234;SDS011;7720;51.926;4.488;2023-08-08T18:00:33;4.38;;;1.77;;
15234;SDS011;7720;51.926;4.488;2023-08-08T18:05:36;4.13;;;1.67;;
15234;SDS011;7720;51.926;4.488;2023-08-08T18:10:42;4.53;;;1.75;;
15234;SDS011;7720;51.926;4.488;2023-08-08T18:15:47;5.18;;;2.50;;
15234;SDS011;7720;51.926;4.488;2023-08-08T18:20:51;5.70;;;2.28;;
15234;SDS011;7720;51.926;4.488;2023-08-08T18:25:56;4.53;;;2.50;;
15234;SDS011;7720;51.926;4.488;2023-08-08T18:31:02;3.92;;;1.77;;
15234;SDS011;7720;51.926;4.488;2023-08-08T18:36:06;4.38;;;2.28;;
15234;SDS011;7720;51.926;4.488;2023-08-08T18:41:11;2.72;;;1.83;;
15234;SDS011;7720;51.926;4.488;2023-08-08T18:46:15;5.13;;;2.00;;
15234;SDS011;7720;51.926;4.488;2023-08-08T18:51:20;5.78;;;2.30;;
15234;SDS011;7720;51.926;4.488;2023-08-08T18:56:26;5.60;;;3.03;;
15234;SDS011;7720;51.926;4.488;2023-08-08T19:01:30;5.72;;;2.40;;
15234;SDS011;7720;51.926;4.488;2023-08-08T19:06:34;4.57;;;1.73;;
15234;SDS011;7720;51.926;4.488;2023-08-08T19:11:39;3.15;;;2.20;;
15234;SDS011;7720;51.926;4.488;2023-08-08T19:16:42;3.03;;;1.60;;
15234;SDS011;7720;51.926;4.488;2023-08-08T19:21:46;3.42;;;2.30;;
15234;SDS011;7720;51.926;4.488;2023-08-08T19:26:51;3.72;;;1.92;;
15234;SDS011;7720;51.926;4.488;2023-08-08T19:31:55;3.70;;;2.10;;
15234;SDS011;7720;51.926;4.488;2023-08-08T19:36:59;4.93;;;2.30;;
15234;SDS011;7720;51.926;4.488;2023-08-08T19:42:05;3.58;;;2.70;;
15234;SDS011;7720;51.926;4.488;2023-08-08T19:47:10;4.50;;;3.30;;
15234;SDS011;7720;51.926;4.488;2023-08-08T19:52:13;4.95;;;3.38;;
15234;SDS011;7720;51.926;4.488;2023-08-08T19:57:18;3.17;;;2.30;;
15234;SDS011;7720;51.926;4.488;2023-08-08T20:02:22;2.85;;;2.30;;
15234;SDS011;7720;51.926;4.488;2023-08-08T20:07:26;2.65;;;2.05;;
15234;SDS011;7720;51.926;4.488;2023-08-08T20:12:31;3.42;;;2.00;;
15234;SDS011;7720;51.926;4.488;2023-08-08T20:17:35;2.83;;;1.90;;
15234;SDS011;7720;51.926;4.488;2023-08-08T20:22:39;2.17;;;1.77;;
15234;SDS011;7720;51.926;4.488;2023-08-08T20:27:44;3.20;;;2.22;;
15234;SDS011;7720;51.926;4.488;2023-08-08T20:32:48;1.45;;;1.33;;
15234;SDS011;7720;51.926;4.488;2023-08-08T20:37:52;3.08;;;2.00;;
15234;SDS011;7720;51.926;4.488;2023-08-08T20:42:57;1.58;;;1.40;;
15234;SDS011;7720;51.926;4.488;2023-08-08T20:48:01;1.40;;;1.30;;
15234;SDS011;7720;51.926;4.488;2023-08-08T20:53:05;7.22;;;5.55;;
15234;SDS011;7720;51.926;4.488;2023-08-08T20:58:10;2.78;;;1.85;;
15234;SDS011;7720;51.926;4.488;2023-08-08T21:03:13;2.78;;;2.15;;
15234;SDS011;7720;51.926;4.488;2023-08-08T21:08:17;2.83;;;1.60;;
15234;SDS011;7720;51.926;4.488;2023-08-08T21:13:22;2.85;;;1.77;;
15234;SDS011;7720;51.926;4.488;2023-08-08T21:18:26;1.63;;;1.23;;
15234;SDS011;7720;51.926;4.488;2023-08-08T21:23:30;2.42;;;1.40;;
15234;SDS011;7720;51.926;4.488;2023-08-08T21:28:35;3.58;;;1.80;;
15234;SDS011;7720;51.926;4.488;2023-08-08T21:33:38;1.90;;;1.35;;
15234;SDS011;7720;51.926;4.488;2023-08-08T21:38:42;2.15;;;1.30;;
15234;SDS011;7720;51.926;4.488;2023-08-08T21:43:47;2.20;;;1.80;;
15234;SDS011;7720;51.926;4.488;2023-08-08T21:48:50;2.53;;;2.15;;
15234;SDS011;7720;51.926;4.488;2023-08-08T21:53:54;2.30;;;2.10;;
15234;SDS011;7720;51.926;4.488;2023-08-08T21:58:59;4.47;;;2.20;;
15234;SDS011;7720;51.926;4.488;2023-08-08T22:04:03;2.63;;;2.35;;
15234;SDS011;7720;51.926;4.488;2023-08-08T22:09:07;2.53;;;2.33;;
15234;SDS011;7720;51.926;4.488;2023-08-08T22:14:13;3.17;;;2.50;;
15234;SDS011;7720;51.926;4.488;2023-08-08T22:19:18;2.20;;;1.98;;
15234;SDS011;7720;51.926;4.488;2023-08-08T22:24:22;1.27;;;1.17;;
15234;SDS011;7720;51.926;4.488;2023-08-08T22:29:27;2.13;;;1.30;;
15234;SDS011;7720;51.926;4.488;2023-08-08T22:34:31;3.05;;;2.35;;
15234;SDS011;7720;51.926;4.488;2023-08-08T22:39:34;3.75;;;2.40;;
15234;SDS011;7720;51.926;4.488;2023-08-08T22:44:39;3.47;;;2.72;;
15234;SDS011;7720;51.926;4.488;2023-08-08T22:49:43;2.53;;;2.33;;
15234;SDS011;7720;51.926;4.488;2023-08-08T22:54:48;2.58;;;2.38;;
15234;SDS011;7720;51.926;4.488;2023-08-08T22:59:53;3.90;;;2.58;;
15234;SDS011;7720;51.926;4.488;2023-08-08T23:04:56;3.83;;;2.60;;
15234;SDS011;7720;51.926;4.488;2023-08-08T23:10:00;3.53;;;3.15;;
15234;SDS011;7720;51.926;4.488;2023-08-08T23:15:06;3.47;;;2.92;;
15234;SDS011;7720;51.926;4.488;2023-08-08T23:20:10;3.00;;;2.70;;
15234;SDS011;7720;51.926;4.488;2023-08-08T23:25:14;4.40;;;3.65;;
15234;SDS011;7720;51.926;4.488;2023-08-08T23:30:20;4.30;;;3.50;;
15234;SDS011;7720;51.926;4.488;2023-08-08T23:35:24;6.38;;;4.68;;
15234;SDS011;7720;51.926;4.488;2023-08-08T23:40:27;5.75;;;4.82;;
15234;SDS011;7720;51.926;4.488;2023-08-08T23:45:32;6.60;;;4.88;;
15234;SDS011;7720;51.926;4.488;2023-08-08T23:50:36;6.80;;;5.43;;
15234;SDS011;7720;51.926;4.488;2023-08-08T23:55:40;7.50;;;6.25;;
